sensor_id;sensor_type;location;lat;lon;timestamp;pressure;altitude;pressure_sealevel;temperature
54306;BMP280;50434;45.188;5.712;2022-07-21T00:00:44;99775.69;;;29.28
54306;BMP280;50434;45.188;5.712;2022-07-21T00:03:09;99782.59;;;29.25
54306;BMP280;50434;45.188;5.712;2022-07-21T00:05:34;99781.09;;;29.22
54306;BMP280;50434;45.188;5.712;2022-07-21T00:08:00;99769.66;;;29.18
54306;BMP280;50434;45.188;5.712;2022-07-21T00:10:26;99768.88;;;29.15
54306;BMP280;50434;45.188;5.712;2022-07-21T00:12:54;99781.63;;;29.18
54306;BMP280;50434;45.188;5.712;2022-07-21T00:15:22;99782.19;;;29.15
54306;BMP280;50434;45.188;5.712;2022-07-21T00:17:47;99782.19;;;29.15
54306;BMP280;50434;45.188;5.712;2022-07-21T00:20:14;99784.72;;;29.07
54306;BMP280;50434;45.188;5.712;2022-07-21T00:22:43;99778.44;;;29.08
54306;BMP280;50434;45.188;5.712;2022-07-21T00:25:10;99779.25;;;29.11
54306;BMP280;50434;45.188;5.712;2022-07-21T00:27:36;99769.06;;;29.02
54306;BMP280;50434;45.188;5.712;2022-07-21T00:30:04;99780.47;;;29.06
54306;BMP280;50434;45.188;5.712;2022-07-21T00:32:29;99766.88;;;29.00
54306;BMP280;50434;45.188;5.712;2022-07-21T00:34:55;99774.03;;;29.03
54306;BMP280;50434;45.188;5.712;2022-07-21T00:37:20;99774.03;;;29.03
54306;BMP280;50434;45.188;5.712;2022-07-21T00:39:50;99772.59;;;29.02
54306;BMP280;50434;45.188;5.712;2022-07-21T00:42:28;99776.13;;;29.03
54306;BMP280;50434;45.188;5.712;2022-07-21T00:44:54;99770.41;;;29.01
54306;BMP280;50434;45.188;5.712;2022-07-21T00:47:21;99779.41;;;28.97
54306;BMP280;50434;45.188;5.712;2022-07-21T00:49:47;99768.88;;;28.98
54306;BMP280;50434;45.188;5.712;2022-07-21T00:52:13;99787.19;;;28.99
54306;BMP280;50434;45.188;5.712;2022-07-21T00:54:38;99772.19;;;28.92
54306;BMP280;50434;45.188;5.712;2022-07-21T00:57:04;99777.25;;;28.96
54306;BMP280;50434;45.188;5.712;2022-07-21T00:59:31;99784.19;;;28.95
54306;BMP280;50434;45.188;5.712;2022-07-21T01:01:56;99777.81;;;28.92
54306;BMP280;50434;45.188;5.712;2022-07-21T01:04:22;99773.66;;;28.93
54306;BMP280;50434;45.188;5.712;2022-07-21T01:06:48;99786.88;;;28.91
54306;BMP280;50434;45.188;5.712;2022-07-21T01:09:13;99774.84;;;28.88
54306;BMP280;50434;45.188;5.712;2022-07-21T01:11:39;99777.00;;;28.90
54306;BMP280;50434;45.188;5.712;2022-07-21T01:14:05;99776.28;;;28.89
54306;BMP280;50434;45.188;5.712;2022-07-21T01:16:31;99776.91;;;28.88
54306;BMP280;50434;45.188;5.712;2022-07-21T01:18:57;99771.31;;;28.88
54306;BMP280;50434;45.188;5.712;2022-07-21T01:21:32;99780.47;;;28.88
54306;BMP280;50434;45.188;5.712;2022-07-21T01:23:59;99774.75;;;28.86
54306;BMP280;50434;45.188;5.712;2022-07-21T01:26:25;99764.81;;;28.83
54306;BMP280;50434;45.188;5.712;2022-07-21T01:28:51;99760.63;;;28.84
54306;BMP280;50434;45.188;5.712;2022-07-21T01:31:16;99766.25;;;28.84
54306;BMP280;50434;45.188;5.712;2022-07-21T01:33:42;99766.19;;;28.82
54306;BMP280;50434;45.188;5.712;2022-07-21T01:36:07;99771.16;;;28.84
54306;BMP280;50434;45.188;5.712;2022-07-21T01:38:33;99761.19;;;28.81
54306;BMP280;50434;45.188;5.712;2022-07-21T01:41:17;99757.75;;;28.82
54306;BMP280;50434;45.188;5.712;2022-07-21T01:44:05;99761.13;;;28.79
54306;BMP280;50434;45.188;5.712;2022-07-21T01:46:34;99759.09;;;28.81
54306;BMP280;50434;45.188;5.712;2022-07-21T01:49:03;99762.47;;;28.78
54306;BMP280;50434;45.188;5.712;2022-07-21T01:51:28;99759.75;;;28.80
54306;BMP280;50434;45.188;5.712;2022-07-21T01:53:54;99761.84;;;28.79
54306;BMP280;50434;45.188;5.712;2022-07-21T01:56:23;99755.44;;;28.77
54306;BMP280;50434;45.188;5.712;2022-07-21T01:58:51;99747.00;;;28.77
54306;BMP280;50434;45.188;5.712;2022-07-21T02:01:19;99758.31;;;28.79
54306;BMP280;50434;45.188;5.712;2022-07-21T02:03:46;99756.72;;;28.74
54306;BMP280;50434;45.188;5.712;2022-07-21T02:06:15;99757.41;;;28.74
54306;BMP280;50434;45.188;5.712;2022-07-21T02:08:41;99754.59;;;28.74
54306;BMP280;50434;45.188;5.712;2022-07-21T02:11:10;99754.72;;;28.76
54306;BMP280;50434;45.188;5.712;2022-07-21T02:13:36;99758.25;;;28.77
54306;BMP280;50434;45.188;5.712;2022-07-21T02:16:02;99756.00;;;28.73
54306;BMP280;50434;45.188;5.712;2022-07-21T02:18:28;99757.41;;;28.74
54306;BMP280;50434;45.188;5.712;2022-07-21T02:20:53;99751.00;;;28.72
54306;BMP280;50434;45.188;5.712;2022-07-21T02:23:20;99760.88;;;28.73
54306;BMP280;50434;45.188;5.712;2022-07-21T02:25:46;99760.88;;;28.73
54306;BMP280;50434;45.188;5.712;2022-07-21T02:28:11;99765.03;;;28.72
54306;BMP280;50434;45.188;5.712;2022-07-21T02:30:37;99763.44;;;28.67
54306;BMP280;50434;45.188;5.712;2022-07-21T02:33:03;99755.06;;;28.69
54306;BMP280;50434;45.188;5.712;2022-07-21T02:35:28;99770.56;;;28.70
54306;BMP280;50434;45.188;5.712;2022-07-21T02:37:54;99753.56;;;28.66
54306;BMP280;50434;45.188;5.712;2022-07-21T02:40:19;99752.03;;;28.63
54306;BMP280;50434;45.188;5.712;2022-07-21T02:42:45;99742.25;;;28.64
54306;BMP280;50434;45.188;5.712;2022-07-21T02:45:11;99750.59;;;28.62
54306;BMP280;50434;45.188;5.712;2022-07-21T02:48:06;99749.31;;;28.65
54306;BMP280;50434;45.188;5.712;2022-07-21T02:50:34;99763.44;;;28.67
54306;BMP280;50434;45.188;5.712;2022-07-21T02:53:03;99760.53;;;28.65
54306;BMP280;50434;45.188;5.712;2022-07-21T02:55:29;99766.84;;;28.65
54306;BMP280;50434;45.188;5.712;2022-07-21T02:58:11;99752.13;;;28.65
54306;BMP280;50434;45.188;5.712;2022-07-21T03:00:42;99747.16;;;28.63
54306;BMP280;50434;45.188;5.712;2022-07-21T03:03:08;99757.63;;;28.63
54306;BMP280;50434;45.188;5.712;2022-07-21T03:05:34;99751.16;;;28.58
54306;BMP280;50434;45.188;5.712;2022-07-21T03:08:00;99753.41;;;28.62
54306;BMP280;50434;45.188;5.712;2022-07-21T03:10:26;99742.00;;;28.58
54306;BMP280;50434;45.188;5.712;2022-07-21T03:12:51;99759.72;;;28.62
54306;BMP280;50434;45.188;5.712;2022-07-21T03:15:17;99754.69;;;28.59
54306;BMP280;50434;45.188;5.712;2022-07-21T03:17:42;99765.31;;;28.62
54306;BMP280;50434;45.188;5.712;2022-07-21T03:20:08;99755.22;;;28.55
54306;BMP280;50434;45.188;5.712;2022-07-21T03:22:34;99753.16;;;28.56
54306;BMP280;50434;45.188;5.712;2022-07-21T03:25:00;99757.41;;;28.57
54306;BMP280;50434;45.188;5.712;2022-07-21T03:27:25;99759.38;;;28.54
54306;BMP280;50434;45.188;5.712;2022-07-21T03:29:51;99764.28;;;28.54
54306;BMP280;50434;45.188;5.712;2022-07-21T03:32:17;99765.00;;;28.54
54306;BMP280;50434;45.188;5.712;2022-07-21T03:34:42;99765.66;;;28.53
54306;BMP280;50434;45.188;5.712;2022-07-21T03:37:10;99776.88;;;28.53
54306;BMP280;50434;45.188;5.712;2022-07-21T03:39:36;99766.81;;;28.48
54306;BMP280;50434;45.188;5.712;2022-07-21T03:42:01;99773.97;;;28.51
54306;BMP280;50434;45.188;5.712;2022-07-21T03:44:27;99765.41;;;28.47
54306;BMP280;50434;45.188;5.712;2022-07-21T03:46:53;99774.56;;;28.47
54306;BMP280;50434;45.188;5.712;2022-07-21T03:49:18;99776.63;;;28.47
54306;BMP280;50434;45.188;5.712;2022-07-21T03:51:44;99777.25;;;28.45
54306;BMP280;50434;45.188;5.712;2022-07-21T03:54:09;99776.50;;;28.45
54306;BMP280;50434;45.188;5.712;2022-07-21T03:56:35;99773.72;;;28.45
54306;BMP280;50434;45.188;5.712;2022-07-21T03:59:00;99771.56;;;28.43
54306;BMP280;50434;45.188;5.712;2022-07-21T04:01:26;99776.44;;;28.43
54306;BMP280;50434;45.188;5.712;2022-07-21T04:03:51;99778.47;;;28.40
54306;BMP280;50434;45.188;5.712;2022-07-21T04:06:16;99779.25;;;28.43
54306;BMP280;50434;45.188;5.712;2022-07-21T04:08:42;99778.47;;;28.40
54306;BMP280;50434;45.188;5.712;2022-07-21T04:11:08;99781.31;;;28.42
54306;BMP280;50434;45.188;5.712;2022-07-21T04:13:33;99776.19;;;28.37
54306;BMP280;50434;45.188;5.712;2022-07-21T04:15:59;99770.59;;;28.37
54306;BMP280;50434;45.188;5.712;2022-07-21T04:18:24;99774.13;;;28.37
54306;BMP280;50434;45.188;5.712;2022-07-21T04:20:49;99772.03;;;28.38
54306;BMP280;50434;45.188;5.712;2022-07-21T04:23:15;99771.94;;;28.36
54306;BMP280;50434;45.188;5.712;2022-07-21T04:25:41;99773.41;;;28.37
54306;BMP280;50434;45.188;5.712;2022-07-21T04:28:06;99766.97;;;28.34
54306;BMP280;50434;45.188;5.712;2022-07-21T04:30:32;99776.84;;;28.35
54306;BMP280;50434;45.188;5.712;2022-07-21T04:32:59;99771.13;;;28.33
54306;BMP280;50434;45.188;5.712;2022-07-21T04:35:25;99769.06;;;28.34
54306;BMP280;50434;45.188;5.712;2022-07-21T04:37:50;99766.78;;;28.30
54306;BMP280;50434;45.188;5.712;2022-07-21T04:40:16;99776.09;;;28.35
54306;BMP280;50434;45.188;5.712;2022-07-21T04:42:42;99767.53;;;28.31
54306;BMP280;50434;45.188;5.712;2022-07-21T04:45:10;99768.31;;;28.33
54306;BMP280;50434;45.188;5.712;2022-07-21T04:47:49;99771.84;;;28.34
54306;BMP280;50434;45.188;5.712;2022-07-21T04:50:17;99755.56;;;28.30
54306;BMP280;50434;45.188;5.712;2022-07-21T04:52:43;99763.25;;;28.30
54306;BMP280;50434;45.188;5.712;2022-07-21T04:55:09;99773.84;;;28.31
54306;BMP280;50434;45.188;5.712;2022-07-21T04:57:40;99775.13;;;28.28
54306;BMP280;50434;45.188;5.712;2022-07-21T05:00:07;99775.84;;;28.29
54306;BMP280;50434;45.188;5.712;2022-07-21T05:02:34;99775.13;;;28.28
54306;BMP280;50434;45.188;5.712;2022-07-21T05:04:59;99777.28;;;28.30
54306;BMP280;50434;45.188;5.712;2022-07-21T05:07:26;99779.28;;;28.27
54306;BMP280;50434;45.188;5.712;2022-07-21T05:09:52;99782.81;;;28.28
54306;BMP280;50434;45.188;5.712;2022-07-21T05:12:17;99783.63;;;28.30
54306;BMP280;50434;45.188;5.712;2022-07-21T05:14:42;99783.47;;;28.26
54306;BMP280;50434;45.188;5.712;2022-07-21T05:17:08;99768.72;;;28.26
54306;BMP280;50434;45.188;5.712;2022-07-21T05:19:34;99768.63;;;28.24
54306;BMP280;50434;45.188;5.712;2022-07-21T05:22:02;99778.75;;;28.31
54306;BMP280;50434;45.188;5.712;2022-07-21T05:24:31;99774.31;;;28.26
54306;BMP280;50434;45.188;5.712;2022-07-21T05:26:58;99786.34;;;28.28
54306;BMP280;50434;45.188;5.712;2022-07-21T05:29:24;99784.91;;;28.27
54306;BMP280;50434;45.188;5.712;2022-07-21T05:31:49;99784.16;;;28.27
54306;BMP280;50434;45.188;5.712;2022-07-21T05:34:14;99786.28;;;28.26
54306;BMP280;50434;45.188;5.712;2022-07-21T05:36:40;99781.28;;;28.25
54306;BMP280;50434;45.188;5.712;2022-07-21T05:39:05;99791.16;;;28.26
54306;BMP280;50434;45.188;5.712;2022-07-21T05:41:31;99778.41;;;28.23
54306;BMP280;50434;45.188;5.712;2022-07-21T05:43:56;99789.06;;;28.26
54306;BMP280;50434;45.188;5.712;2022-07-21T05:46:22;99778.22;;;28.19
54306;BMP280;50434;45.188;5.712;2022-07-21T05:48:47;99785.28;;;28.20
54306;BMP280;50434;45.188;5.712;2022-07-21T05:51:13;99793.03;;;28.21
54306;BMP280;50434;45.188;5.712;2022-07-21T05:53:39;99788.16;;;28.22
54306;BMP280;50434;45.188;5.712;2022-07-21T05:56:06;99786.56;;;28.17
54306;BMP280;50434;45.188;5.712;2022-07-21T05:58:33;99786.63;;;28.19
54306;BMP280;50434;45.188;5.712;2022-07-21T06:00:59;99791.50;;;28.18
54306;BMP280;50434;45.188;5.712;2022-07-21T06:03:38;99794.50;;;28.22
54306;BMP280;50434;45.188;5.712;2022-07-21T06:06:04;99799.56;;;28.26
54306;BMP280;50434;45.188;5.712;2022-07-21T06:08:30;99802.38;;;28.26
54306;BMP280;50434;45.188;5.712;2022-07-21T06:10:56;99805.91;;;28.26
54306;BMP280;50434;45.188;5.712;2022-07-21T06:13:22;99804.53;;;28.27
54306;BMP280;50434;45.188;5.712;2022-07-21T06:15:47;99808.97;;;28.32
54306;BMP280;50434;45.188;5.712;2022-07-21T06:18:12;99813.94;;;28.34
54306;BMP280;50434;45.188;5.712;2022-07-21T06:20:38;99809.66;;;28.33
54306;BMP280;50434;45.188;5.712;2022-07-21T06:23:05;99811.13;;;28.34
54306;BMP280;50434;45.188;5.712;2022-07-21T06:25:30;99817.47;;;28.34
54306;BMP280;50434;45.188;5.712;2022-07-21T06:27:55;99823.69;;;28.33
54306;BMP280;50434;45.188;5.712;2022-07-21T06:30:21;99820.19;;;28.32
54306;BMP280;50434;45.188;5.712;2022-07-21T06:32:46;99740.50;;;27.75
54306;BMP280;50434;45.188;5.712;2022-07-21T06:35:12;99831.50;;;28.34
54306;BMP280;50434;45.188;5.712;2022-07-21T06:37:37;99837.19;;;28.36
54306;BMP280;50434;45.188;5.712;2022-07-21T06:40:03;99831.56;;;28.36
54306;BMP280;50434;45.188;5.712;2022-07-21T06:42:29;99825.16;;;28.34
54306;BMP280;50434;45.188;5.712;2022-07-21T06:44:54;99839.34;;;28.38
54306;BMP280;50434;45.188;5.712;2022-07-21T06:47:20;99832.31;;;28.37
54306;BMP280;50434;45.188;5.712;2022-07-21T06:49:45;99836.66;;;28.40
54306;BMP280;50434;45.188;5.712;2022-07-21T06:52:12;99838.81;;;28.41
54306;BMP280;50434;45.188;5.712;2022-07-21T06:54:38;99837.38;;;28.40
54306;BMP280;50434;45.188;5.712;2022-07-21T06:57:04;99842.31;;;28.42
54306;BMP280;50434;45.188;5.712;2022-07-21T06:59:31;99836.66;;;28.40
54306;BMP280;50434;45.188;5.712;2022-07-21T07:01:57;99830.13;;;28.35
54306;BMP280;50434;45.188;5.712;2022-07-21T07:04:24;99839.34;;;28.38
54306;BMP280;50434;45.188;5.712;2022-07-21T07:06:49;99837.19;;;28.36
54306;BMP280;50434;45.188;5.712;2022-07-21T07:09:19;99837.19;;;28.36
54306;BMP280;50434;45.188;5.712;2022-07-21T07:11:44;99838.81;;;28.41
54306;BMP280;50434;45.188;5.712;2022-07-21T07:14:15;99838.09;;;28.41
54306;BMP280;50434;45.188;5.712;2022-07-21T07:16:40;99831.66;;;28.38
54306;BMP280;50434;45.188;5.712;2022-07-21T07:19:05;99839.44;;;28.40
54306;BMP280;50434;45.188;5.712;2022-07-21T07:21:31;99838.09;;;28.41
54306;BMP280;50434;45.188;5.712;2022-07-21T07:23:57;99830.31;;;28.39
54306;BMP280;50434;45.188;5.712;2022-07-21T07:26:22;99835.38;;;28.43
54306;BMP280;50434;45.188;5.712;2022-07-21T07:28:47;99826.88;;;28.41
54306;BMP280;50434;45.188;5.712;2022-07-21T07:31:13;99820.53;;;28.40
54306;BMP280;50434;45.188;5.712;2022-07-21T07:33:38;99828.28;;;28.42
54306;BMP280;50434;45.188;5.712;2022-07-21T07:36:04;99825.59;;;28.44
54306;BMP280;50434;45.188;5.712;2022-07-21T07:38:30;99829.75;;;28.43
54306;BMP280;50434;45.188;5.712;2022-07-21T07:40:55;99825.59;;;28.44
54306;BMP280;50434;45.188;5.712;2022-07-21T07:43:21;99820.69;;;28.44
54306;BMP280;50434;45.188;5.712;2022-07-21T07:45:46;99821.34;;;28.43
54306;BMP280;50434;45.188;5.712;2022-07-21T07:48:12;99817.06;;;28.42
54306;BMP280;50434;45.188;5.712;2022-07-21T07:50:37;99812.84;;;28.41
54306;BMP280;50434;45.188;5.712;2022-07-21T07:53:03;99815.78;;;28.45
54306;BMP280;50434;45.188;5.712;2022-07-21T07:55:28;99810.13;;;28.43
54306;BMP280;50434;45.188;5.712;2022-07-21T07:57:54;99817.19;;;28.44
54306;BMP280;50434;45.188;5.712;2022-07-21T08:00:19;99812.38;;;28.46
54306;BMP280;50434;45.188;5.712;2022-07-21T08:02:45;99806.78;;;28.46
54306;BMP280;50434;45.188;5.712;2022-07-21T08:05:11;99810.19;;;28.45
54306;BMP280;50434;45.188;5.712;2022-07-21T08:07:40;99808.78;;;28.44
54306;BMP280;50434;45.188;5.712;2022-07-21T08:10:07;99799.53;;;28.41
54306;BMP280;50434;45.188;5.712;2022-07-21T08:12:33;99806.78;;;28.46
54306;BMP280;50434;45.188;5.712;2022-07-21T08:14:59;99798.97;;;28.45
54306;BMP280;50434;45.188;5.712;2022-07-21T08:17:25;99805.44;;;28.47
54306;BMP280;50434;45.188;5.712;2022-07-21T08:19:50;99801.16;;;28.46
54306;BMP280;50434;45.188;5.712;2022-07-21T08:22:16;99804.69;;;28.47
54306;BMP280;50434;45.188;5.712;2022-07-21T08:24:41;99792.63;;;28.44
54306;BMP280;50434;45.188;5.712;2022-07-21T08:27:07;99791.28;;;28.45
54306;BMP280;50434;45.188;5.712;2022-07-21T08:29:33;99778.59;;;28.44
54306;BMP280;50434;45.188;5.712;2022-07-21T08:31:58;99780.72;;;28.44
54306;BMP280;50434;45.188;5.712;2022-07-21T08:34:24;99776.44;;;28.43
54306;BMP280;50434;45.188;5.712;2022-07-21T08:36:50;99781.50;;;28.46
54306;BMP280;50434;45.188;5.712;2022-07-21T08:39:18;99777.97;;;28.46
54306;BMP280;50434;45.188;5.712;2022-07-21T08:41:44;99780.16;;;28.47
54306;BMP280;50434;45.188;5.712;2022-07-21T08:44:09;99768.94;;;28.47
54306;BMP280;50434;45.188;5.712;2022-07-21T08:46:38;99759.56;;;28.41
54306;BMP280;50434;45.188;5.712;2022-07-21T08:49:09;99763.94;;;28.46
54306;BMP280;50434;45.188;5.712;2022-07-21T08:51:35;99771.09;;;28.49
54306;BMP280;50434;45.188;5.712;2022-07-21T08:54:02;99771.03;;;28.47
54306;BMP280;50434;45.188;5.712;2022-07-21T08:56:28;99773.25;;;28.50
54306;BMP280;50434;45.188;5.712;2022-07-21T08:58:54;99768.38;;;28.51
54306;BMP280;50434;45.188;5.712;2022-07-21T09:01:19;99765.56;;;28.51
54306;BMP280;50434;45.188;5.712;2022-07-21T09:03:50;99769.06;;;28.51
54306;BMP280;50434;45.188;5.712;2022-07-21T09:06:15;99765.56;;;28.51
54306;BMP280;50434;45.188;5.712;2022-07-21T09:08:52;99756.41;;;28.50
54306;BMP280;50434;45.188;5.712;2022-07-21T09:11:26;99754.91;;;28.47
54306;BMP280;50434;45.188;5.712;2022-07-21T09:14:16;99761.47;;;28.54
54306;BMP280;50434;45.188;5.712;2022-07-21T09:16:46;99755.88;;;28.54
54306;BMP280;50434;45.188;5.712;2022-07-21T09:19:36;99753.78;;;28.54
54306;BMP280;50434;45.188;5.712;2022-07-21T09:22:06;99743.91;;;28.53
54306;BMP280;50434;45.188;5.712;2022-07-21T09:24:36;99741.84;;;28.54
54306;BMP280;50434;45.188;5.712;2022-07-21T09:29:51;99750.41;;;28.58
54306;BMP280;50434;45.188;5.712;2022-07-21T09:32:30;99738.47;;;28.57
54306;BMP280;50434;45.188;5.712;2022-07-21T09:35:03;99737.09;;;28.58
54306;BMP280;50434;45.188;5.712;2022-07-21T09:37:29;99732.22;;;28.59
54306;BMP280;50434;45.188;5.712;2022-07-21T09:40:00;99735.75;;;28.59
54306;BMP280;50434;45.188;5.712;2022-07-21T09:42:32;99730.84;;;28.60
54306;BMP280;50434;45.188;5.712;2022-07-21T09:45:06;99717.63;;;28.62
54306;BMP280;50434;45.188;5.712;2022-07-21T09:47:35;99716.19;;;28.61
54306;BMP280;50434;45.188;5.712;2022-07-21T09:50:03;99712.00;;;28.62
54306;BMP280;50434;45.188;5.712;2022-07-21T09:52:33;99720.91;;;28.74
54306;BMP280;50434;45.188;5.712;2022-07-21T09:55:08;99705.47;;;28.73
54306;BMP280;50434;45.188;5.712;2022-07-21T09:57:37;99709.00;;;28.74
54306;BMP280;50434;45.188;5.712;2022-07-21T10:00:12;99705.75;;;28.81
54306;BMP280;50434;45.188;5.712;2022-07-21T10:02:38;99713.72;;;28.87
54306;BMP280;50434;45.188;5.712;2022-07-21T10:05:10;99696.00;;;28.82
54306;BMP280;50434;45.188;5.712;2022-07-21T10:07:40;99691.25;;;28.87
54306;BMP280;50434;45.188;5.712;2022-07-21T10:10:06;99720.66;;;29.03
54306;BMP280;50434;45.188;5.712;2022-07-21T10:12:33;99702.06;;;28.94
54306;BMP280;50434;45.188;5.712;2022-07-21T10:14:58;99695.81;;;28.96
54306;BMP280;50434;45.188;5.712;2022-07-21T10:17:27;99688.84;;;28.97
54306;BMP280;50434;45.188;5.712;2022-07-21T10:22:59;99692.34;;;28.97
54306;BMP280;50434;45.188;5.712;2022-07-21T10:25:30;99690.19;;;28.96
54306;BMP280;50434;45.188;5.712;2022-07-21T10:32:06;99673.13;;;28.90
54306;BMP280;50434;45.188;5.712;2022-07-21T10:34:36;99666.22;;;28.93
54306;BMP280;50434;45.188;5.712;2022-07-21T10:37:02;99676.31;;;29.00
54306;BMP280;50434;45.188;5.712;2022-07-21T10:45:42;99624.91;;;28.78
54306;BMP280;50434;45.188;5.712;2022-07-21T10:51:10;99658.06;;;29.01
54306;BMP280;50434;45.188;5.712;2022-07-21T10:53:37;99665.50;;;29.12
54306;BMP280;50434;45.188;5.712;2022-07-21T10:56:03;99624.28;;;28.79
54306;BMP280;50434;45.188;5.712;2022-07-21T10:58:39;99634.19;;;29.00
54306;BMP280;50434;45.188;5.712;2022-07-21T11:03:41;99642.59;;;29.17
54306;BMP280;50434;45.188;5.712;2022-07-21T11:06:26;99617.56;;;29.06
54306;BMP280;50434;45.188;5.712;2022-07-21T11:12:04;99635.50;;;29.16
54306;BMP280;50434;45.188;5.712;2022-07-21T11:14:56;99599.16;;;28.83
54306;BMP280;50434;45.188;5.712;2022-07-21T11:17:42;99629.44;;;29.04
54306;BMP280;50434;45.188;5.712;2022-07-21T11:20:17;99573.31;;;28.67
54306;BMP280;50434;45.188;5.712;2022-07-21T11:22:52;99622.84;;;28.98
54306;BMP280;50434;45.188;5.712;2022-07-21T11:25:18;99586.78;;;28.71
54306;BMP280;50434;45.188;5.712;2022-07-21T11:27:44;99605.34;;;28.80
54306;BMP280;50434;45.188;5.712;2022-07-21T11:30:18;99601.75;;;28.77
54306;BMP280;50434;45.188;5.712;2022-07-21T11:32:47;99565.13;;;28.56
54306;BMP280;50434;45.188;5.712;2022-07-21T11:35:13;99595.25;;;28.73
54306;BMP280;50434;45.188;5.712;2022-07-21T11:37:43;99553.34;;;28.42
54306;BMP280;50434;45.188;5.712;2022-07-21T11:40:16;99553.53;;;28.46
54306;BMP280;50434;45.188;5.712;2022-07-21T11:42:45;99554.84;;;28.45
54306;BMP280;50434;45.188;5.712;2022-07-21T11:45:29;99542.84;;;28.42
54306;BMP280;50434;45.188;5.712;2022-07-21T11:47:54;99558.06;;;28.55
54306;BMP280;50434;45.188;5.712;2022-07-21T11:50:31;99571.69;;;28.62
54306;BMP280;50434;45.188;5.712;2022-07-21T11:52:57;99578.09;;;28.65
54306;BMP280;50434;45.188;5.712;2022-07-21T11:55:31;99553.53;;;28.46
54306;BMP280;50434;45.188;5.712;2022-07-21T11:57:57;99565.19;;;28.58
54306;BMP280;50434;45.188;5.712;2022-07-21T12:00:24;99533.56;;;28.38
54306;BMP280;50434;45.188;5.712;2022-07-21T12:03:10;99522.13;;;28.32
54306;BMP280;50434;45.188;5.712;2022-07-21T12:05:40;99544.47;;;28.47
54306;BMP280;50434;45.188;5.712;2022-07-21T12:08:06;99544.59;;;28.51
54306;BMP280;50434;45.188;5.712;2022-07-21T12:10:32;99514.19;;;28.26
54306;BMP280;50434;45.188;5.712;2022-07-21T12:13:02;99518.75;;;28.35
54306;BMP280;50434;45.188;5.712;2022-07-21T12:15:31;99515.22;;;28.35
54306;BMP280;50434;45.188;5.712;2022-07-21T12:18:02;99495.84;;;28.23
54306;BMP280;50434;45.188;5.712;2022-07-21T12:20:39;99508.59;;;28.26
54306;BMP280;50434;45.188;5.712;2022-07-21T12:25:46;99517.59;;;28.42
54306;BMP280;50434;45.188;5.712;2022-07-21T12:28:11;99532.75;;;28.53
54306;BMP280;50434;45.188;5.712;2022-07-21T12:30:45;99499.81;;;28.36
54306;BMP280;50434;45.188;5.712;2022-07-21T12:33:27;99477.66;;;28.24
54306;BMP280;50434;45.188;5.712;2022-07-21T12:36:04;99514.41;;;28.50
54306;BMP280;50434;45.188;5.712;2022-07-21T12:41:03;99494.16;;;28.34
54306;BMP280;50434;45.188;5.712;2022-07-21T12:43:28;99464.28;;;28.23
54306;BMP280;50434;45.188;5.712;2022-07-21T12:45:57;99497.19;;;28.40
54306;BMP280;50434;45.188;5.712;2022-07-21T12:48:29;99477.00;;;28.26
54306;BMP280;50434;45.188;5.712;2022-07-21T12:51:06;99508.63;;;28.46
54306;BMP280;50434;45.188;5.712;2022-07-21T12:53:49;99465.78;;;28.26
54306;BMP280;50434;45.188;5.712;2022-07-21T12:56:19;99462.81;;;28.22
54306;BMP280;50434;45.188;5.712;2022-07-21T12:58:46;99495.88;;;28.43
54306;BMP280;50434;45.188;5.712;2022-07-21T13:01:20;99482.28;;;28.35
54306;BMP280;50434;45.188;5.712;2022-07-21T13:03:46;99474.22;;;28.26
54306;BMP280;50434;45.188;5.712;2022-07-21T13:06:13;99470.84;;;28.29
54306;BMP280;50434;45.188;5.712;2022-07-21T13:08:46;99487.41;;;28.41
54306;BMP280;50434;45.188;5.712;2022-07-21T13:11:14;99458.66;;;28.23
54306;BMP280;50434;45.188;5.712;2022-07-21T13:14:15;99434.22;;;28.08
54306;BMP280;50434;45.188;5.712;2022-07-21T13:16:49;99468.91;;;28.34
54306;BMP280;50434;45.188;5.712;2022-07-21T13:19:52;99475.47;;;28.40
54306;BMP280;50434;45.188;5.712;2022-07-21T13:22:18;99425.19;;;28.09
54306;BMP280;50434;45.188;5.712;2022-07-21T13:25:43;99470.63;;;28.43
54306;BMP280;50434;45.188;5.712;2022-07-21T13:31:33;99428.72;;;28.10
54306;BMP280;50434;45.188;5.712;2022-07-21T13:34:26;99464.31;;;28.42
54306;BMP280;50434;45.188;5.712;2022-07-21T13:54:43;99434.59;;;28.35
54306;BMP280;50434;45.188;5.712;2022-07-21T14:04:20;99436.97;;;28.43
54306;BMP280;50434;45.188;5.712;2022-07-21T14:13:47;99388.16;;;28.13
54306;BMP280;50434;45.188;5.712;2022-07-21T14:16:41;99373.41;;;28.12
54306;BMP280;50434;45.188;5.712;2022-07-21T14:19:16;99404.44;;;28.36
